Time;durP1;ratioP1;P1;durP2;ratioP2;P2;SDS_P1;SDS_P2;PMS_P1;PMS_P2;Temp;Humidity;BMP_temperature;BMP_pressure;BME280_temperature;BME280_humidity;BME280_pressure;Samples;Min_cycle;Max_cycle;Signal;HPM_P1;HPM_P2
2022/12/12 00:00:12;;;;;;;28.10;18.98;;;;;;;-0.99;95.24;101027.72;5051933;28;20390;-55
2022/12/12 00:02:39;;;;;;;30.30;18.95;;;;;;;-1.03;95.52;101026.09;5058166;28;20033;-56
2022/12/12 00:05:05;;;;;;;30.52;19.08;;;;;;;-1.08;95.46;101030.56;5051947;28;20021;-56
2022/12/12 00:07:31;;;;;;;33.33;19.48;;;;;;;-1.12;95.55;101032.41;5051980;28;20047;-56
2022/12/12 00:09:56;;;;;;;28.25;19.02;;;;;;;-1.12;95.93;101039.34;5052234;28;20017;-56
2022/12/12 00:12:21;;;;;;;32.35;18.92;;;;;;;-1.17;95.68;101033.38;5052632;28;20053;-53
2022/12/12 00:14:47;;;;;;;30.27;18.42;;;;;;;-1.20;95.92;101036.06;5051081;28;20013;-56
2022/12/12 00:17:12;;;;;;;31.25;19.00;;;;;;;-1.22;96.10;101033.50;5043546;28;20025;-55
2022/12/12 00:19:37;;;;;;;29.00;19.05;;;;;;;-1.24;96.23;101035.28;5055005;28;20029;-56
2022/12/12 00:22:03;;;;;;;31.50;19.17;;;;;;;-1.27;96.16;101029.31;5052266;28;20025;-55
2022/12/12 00:24:28;;;;;;;30.60;19.83;;;;;;;-1.29;96.19;101038.91;5051464;28;20128;-53
2022/12/12 00:26:53;;;;;;;32.42;19.70;;;;;;;-1.32;96.63;101034.63;5052333;28;20057;-54
2022/12/12 00:29:18;;;;;;;31.52;19.13;;;;;;;-1.33;96.60;101033.78;5052333;28;20055;-56
2022/12/12 00:31:44;;;;;;;28.33;18.20;;;;;;;-1.35;96.80;101034.69;5051511;28;20036;-54
2022/12/12 00:34:09;;;;;;;29.63;18.50;;;;;;;-1.37;96.62;101039.09;5051956;28;20033;-52
2022/12/12 00:36:34;;;;;;;29.42;18.92;;;;;;;-1.41;96.43;101040.06;5051224;28;20024;-55
2022/12/12 00:39:00;;;;;;;27.95;19.30;;;;;;;-1.44;96.63;101037.53;5050907;28;20388;-52
2022/12/12 00:41:26;;;;;;;29.85;19.60;;;;;;;-1.48;96.72;101034.16;5051820;28;20082;-55
2022/12/12 00:43:51;;;;;;;30.75;19.45;;;;;;;-1.52;96.91;101037.69;5051242;28;20036;-55
2022/12/12 00:46:21;;;;;;;29.80;18.50;;;;;;;-1.56;97.16;101041.28;5041241;28;20029;-55
2022/12/12 00:48:47;;;;;;;27.67;18.77;;;;;;;-1.60;97.16;101047.44;5051562;28;20048;-52
2022/12/12 00:51:16;;;;;;;32.08;19.05;;;;;;;-1.64;97.12;101049.25;5052190;28;20545;-52
2022/12/12 00:53:42;;;;;;;28.83;18.45;;;;;;;-1.66;97.57;101042.38;5048218;28;20121;-53
2022/12/12 00:56:07;;;;;;;31.75;19.65;;;;;;;-1.70;98.06;101046.78;5041624;28;20029;-51
2022/12/12 00:58:33;;;;;;;33.42;20.00;;;;;;;-1.76;97.63;101047.78;5051239;28;20017;-54
2022/12/12 01:01:05;;;;;;;32.08;19.85;;;;;;;-1.81;97.70;101052.25;5042199;28;20061;-53
2022/12/12 01:03:33;;;;;;;30.50;19.38;;;;;;;-1.88;97.71;101045.47;5051626;28;20021;-52
2022/12/12 01:05:58;;;;;;;32.25;20.08;;;;;;;-1.90;97.66;101048.09;5052363;28;20534;-52
2022/12/12 01:08:23;;;;;;;28.00;18.58;;;;;;;-1.94;98.10;101050.81;5050927;28;20064;-52
2022/12/12 01:10:49;;;;;;;33.70;20.23;;;;;;;-1.97;98.32;101056.06;5051967;28;20052;-52
2022/12/12 01:13:14;;;;;;;33.75;19.33;;;;;;;-2.04;98.36;101047.53;5049656;28;20411;-54
2022/12/12 01:15:39;;;;;;;32.22;19.88;;;;;;;-2.07;98.46;101061.44;5051691;28;20028;-54
2022/12/12 01:18:05;;;;;;;32.20;19.67;;;;;;;-2.11;98.65;101067.63;5050576;28;20032;-56
2022/12/12 01:20:30;;;;;;;30.13;19.00;;;;;;;-2.14;98.69;101067.69;5051571;28;20390;-56
2022/12/12 01:22:56;;;;;;;33.65;18.85;;;;;;;-2.16;98.61;101066.84;5051307;28;20083;-52
2022/12/12 01:25:21;;;;;;;32.17;20.20;;;;;;;-2.16;98.66;101073.81;5051958;28;20108;-54
2022/12/12 01:27:47;;;;;;;31.13;18.90;;;;;;;-2.19;98.75;101069.53;5050730;28;20021;-52
2022/12/12 01:30:17;;;;;;;35.80;19.15;;;;;;;-2.22;98.47;101071.34;5051201;28;20471;-53
2022/12/12 01:32:43;;;;;;;34.92;20.02;;;;;;;-2.24;98.78;101068.75;5052113;28;20033;-56
2022/12/12 01:35:08;;;;;;;34.83;19.98;;;;;;;-2.30;99.16;101072.34;5056138;28;20033;-54
2022/12/12 01:37:34;;;;;;;34.47;19.50;;;;;;;-2.32;99.11;101086.25;5054891;28;20103;-56
2022/12/12 01:40:00;;;;;;;35.13;20.33;;;;;;;-2.35;99.13;101083.72;5055594;28;20111;-55
2022/12/12 01:42:27;;;;;;;32.85;20.73;;;;;;;-2.39;99.34;101082.06;5054515;28;20104;-53
2022/12/12 01:44:53;;;;;;;34.70;20.17;;;;;;;-2.43;99.32;101087.31;5055796;28;20515;-55
2022/12/12 01:47:21;;;;;;;31.70;19.52;;;;;;;-2.47;99.79;101082.22;5055282;28;20100;-53
2022/12/12 01:50:00;;;;;;;33.80;19.58;;;;;;;-2.47;99.79;101087.41;5054321;28;20025;-54
2022/12/12 01:52:33;;;;;;;32.55;20.42;;;;;;;-2.51;99.88;101093.56;5055156;28;20032;-54
2022/12/12 01:55:01;;;;;;;30.50;18.50;;;;;;;-2.55;99.76;101087.53;5041926;28;20029;-54
2022/12/12 01:57:31;;;;;;;35.35;19.67;;;;;;;-2.58;100.00;101094.53;5054537;28;20029;-55
2022/12/12 01:59:59;;;;;;;33.65;20.20;;;;;;;-2.61;100.00;101091.13;5053151;28;20033;-53
2022/12/12 02:02:26;;;;;;;32.97;19.75;;;;;;;-2.64;100.00;101093.78;5055137;28;20032;-54
2022/12/12 02:04:51;;;;;;;33.08;19.92;;;;;;;-2.65;99.99;101099.00;5052262;28;20028;-56
2022/12/12 02:07:17;;;;;;;32.30;19.20;;;;;;;-2.67;100.00;101100.78;5054534;28;20111;-55
2022/12/12 02:09:43;;;;;;;35.15;19.65;;;;;;;-2.70;100.00;101093.88;5054698;28;20074;-55
2022/12/12 02:12:12;;;;;;;33.05;20.00;;;;;;;-2.71;100.00;101099.97;5052838;28;20402;-55
2022/12/12 02:14:41;;;;;;;30.55;18.95;;;;;;;-2.70;100.00;101093.03;5063983;28;20039;-53
2022/12/12 02:17:44;;;;;;;31.10;18.50;;;;;;;-2.69;100.00;101098.19;5048683;28;20072;-54
2022/12/12 02:20:25;;;;;;;36.00;20.17;;;;;;;-2.71;99.80;101099.13;5050207;28;20033;-53
2022/12/12 02:23:02;;;;;;;34.97;20.80;;;;;;;-2.77;100.00;101102.66;5050521;28;20037;-55
2022/12/12 02:26:02;;;;;;;33.53;19.73;;;;;;;-2.78;100.00;101100.97;5054303;28;20039;-56
2022/12/12 02:28:46;;;;;;;35.00;20.23;;;;;;;-2.82;100.00;101104.50;5039709;28;20022;-52
2022/12/12 02:31:21;;;;;;;33.97;19.92;;;;;;;-2.88;100.00;101105.47;5052508;28;20079;-53
2022/12/12 02:33:56;;;;;;;30.83;19.92;;;;;;;-2.89;100.00;101111.53;5053685;28;20036;-52
2022/12/12 02:36:33;;;;;;;30.67;18.83;;;;;;;-2.88;100.00;101109.78;5054013;28;20055;-53
2022/12/12 02:39:24;;;;;;;33.47;19.42;;;;;;;-2.88;100.00;101113.28;5051971;28;20028;-54
2022/12/12 02:41:59;;;;;;;33.53;18.95;;;;;;;-2.89;100.00;101110.69;5052735;28;20025;-53
2022/12/12 02:44:27;;;;;;;31.50;19.98;;;;;;;-2.92;100.00;101110.72;5053337;28;20029;-54
2022/12/12 02:47:04;;;;;;;33.25;19.63;;;;;;;-2.93;100.00;101107.28;5054118;28;20036;-56
2022/12/12 02:49:51;;;;;;;35.53;21.00;;;;;;;-2.93;100.00;101109.88;5053281;28;20037;-53
2022/12/12 02:52:18;;;;;;;33.55;19.13;;;;;;;-2.97;100.00;101103.84;5053824;28;20475;-55
2022/12/12 02:54:43;;;;;;;32.50;20.70;;;;;;;-2.97;100.00;101110.81;5047136;28;20479;-54
2022/12/12 02:57:18;;;;;;;36.70;20.45;;;;;;;-3.00;100.00;101106.53;5042147;28;20032;-53
2022/12/12 02:59:49;;;;;;;32.15;19.63;;;;;;;-3.01;100.00;101103.94;5049373;28;20110;-56
2022/12/12 03:02:40;;;;;;;31.65;19.10;;;;;;;-3.01;100.00;101103.94;5045857;28;20594;-55
2022/12/12 03:09:00;;;;;;;32.58;18.88;;;;;;;-3.09;100.00;101101.47;5048984;28;20044;-51
2022/12/12 03:12:03;;;;;;;35.85;20.05;;;;;;;-3.10;100.00;101102.34;5053977;28;20067;-53
2022/12/12 03:14:41;;;;;;;33.13;18.05;;;;;;;-3.12;100.00;101096.31;5053075;28;20049;-54
2022/12/12 03:17:18;;;;;;;34.80;19.08;;;;;;;-3.13;99.94;101097.22;5053078;28;20029;-54
2022/12/12 03:19:53;;;;;;;32.35;19.63;;;;;;;-3.13;100.00;101094.63;5053248;28;20487;-54
2022/12/12 03:22:47;;;;;;;36.80;20.40;;;;;;;-3.16;99.68;101098.09;5047856;28;20033;-55
2022/12/12 03:25:19;;;;;;;35.60;19.50;;;;;;;-3.17;99.73;101095.53;5038055;28;20094;-54
2022/12/12 03:27:52;;;;;;;34.22;20.35;;;;;;;-3.18;99.65;101097.28;5052413;28;20033;-52
2022/12/12 03:30:18;;;;;;;32.20;18.83;;;;;;;-3.22;99.61;101098.19;5040850;28;20029;-52
2022/12/12 03:33:07;;;;;;;37.78;20.02;;;;;;;-3.21;99.60;101097.31;5049623;28;20032;-53
2022/12/12 03:35:38;;;;;;;34.47;19.08;;;;;;;-3.24;99.58;101096.53;5052183;28;20029;-52
2022/12/12 03:38:23;;;;;;;32.17;18.23;;;;;;;-3.28;99.25;101098.31;5051855;28;20029;-53
2022/12/12 03:40:53;;;;;;;33.47;19.30;;;;;;;-3.34;99.62;101098.41;5049020;28;20498;-55
2022/12/12 03:43:25;;;;;;;30.50;18.83;;;;;;;-3.37;99.68;101096.69;5052925;28;20667;-55
2022/12/12 03:46:06;;;;;;;34.50;19.52;;;;;;;-3.39;99.37;101092.41;5053005;28;20158;-53
2022/12/12 03:48:46;;;;;;;31.60;18.88;;;;;;;-3.41;99.71;101099.38;5053116;28;20094;-54
2022/12/12 03:51:27;;;;;;;34.22;19.25;;;;;;;-3.42;99.61;101110.63;5052573;28;20032;-52
2022/12/12 03:54:00;;;;;;;32.97;18.75;;;;;;;-3.43;99.29;101102.00;5049905;28;20108;-52
2022/12/12 03:56:33;;;;;;;30.13;19.02;;;;;;;-3.44;99.73;101102.00;5044695;28;20028;-54
2022/12/12 03:59:01;;;;;;;31.67;18.85;;;;;;;-3.46;99.63;101108.97;5051992;28;20043;-53
2022/12/12 04:01:36;;;;;;;33.53;19.48;;;;;;;-3.48;99.58;101105.53;5052252;28;20037;-53
2022/12/12 04:04:13;;;;;;;33.75;17.98;;;;;;;-3.48;99.85;101102.91;5051991;28;20254;-53
2022/12/12 04:06:47;;;;;;;33.65;19.42;;;;;;;-3.51;99.40;101106.44;5050815;28;20036;-52
2022/12/12 04:15:18;;;;;;;34.53;19.20;;;;;;;-3.57;99.61;101109.09;5051263;28;20102;-55
2022/12/12 04:17:56;;;;;;;31.45;18.08;;;;;;;-3.58;99.22;101103.06;5052560;28;20033;-51
2022/12/12 04:24:12;;;;;;;35.15;19.50;;;;;;;-3.58;99.32;101115.16;5048080;28;20305;-54
2022/12/12 04:26:56;;;;;;;30.17;17.88;;;;;;;-3.60;99.45;101115.19;5049136;28;20033;-51
2022/12/12 04:29:31;;;;;;;33.50;18.58;;;;;;;-3.63;99.28;101120.44;5051113;28;20163;-53
2022/12/12 04:32:06;;;;;;;32.55;19.00;;;;;;;-3.66;99.13;101120.50;5051947;28;20035;-51
2022/12/12 04:34:50;;;;;;;33.00;18.42;;;;;;;-3.65;99.39;101118.75;5050554;28;20037;-55
2022/12/12 04:37:21;;;;;;;29.25;18.45;;;;;;;-3.66;99.18;101124.78;5052004;28;20136;-54
2022/12/12 04:39:50;;;;;;;31.73;18.38;;;;;;;-3.68;98.98;101135.22;5051945;28;20044;-52
2022/12/12 04:42:20;;;;;;;33.57;18.43;;;;;;;-3.71;98.83;101130.06;5051170;28;20040;-55
2022/12/12 04:44:47;;;;;;;31.42;18.92;;;;;;;-3.74;98.82;101132.72;5051444;28;20079;-53
2022/12/12 04:47:13;;;;;;;31.05;18.25;;;;;;;-3.77;98.94;101143.13;5050574;28;20044;-51
2022/12/12 04:49:42;;;;;;;31.77;19.00;;;;;;;-3.81;98.67;101133.66;5051585;28;20159;-53
2022/12/12 04:52:11;;;;;;;31.27;18.42;;;;;;;-3.81;99.38;101136.25;5050976;28;20036;-55
2022/12/12 04:54:48;;;;;;;32.20;18.92;;;;;;;-3.86;98.76;101130.25;5051861;28;20025;-54
2022/12/12 04:57:20;;;;;;;33.47;18.13;;;;;;;-3.88;99.49;101138.06;5049220;28;20037;-52
2022/12/12 04:59:46;;;;;;;33.50;19.73;;;;;;;-3.89;98.97;101130.31;5043857;28;20033;-56
2022/12/12 05:02:32;;;;;;;33.03;18.85;;;;;;;-3.89;99.08;101138.09;5051390;28;20021;-53
2022/12/12 05:05:01;;;;;;;35.60;19.15;;;;;;;-3.95;99.31;101139.88;5046215;28;20033;-53
2022/12/12 05:07:51;;;;;;;32.58;19.73;;;;;;;-3.92;99.21;101142.41;5044265;28;20033;-53
2022/12/12 05:10:17;;;;;;;33.08;17.98;;;;;;;-3.97;99.51;101131.25;5057264;28;20033;-55
2022/12/12 05:12:48;;;;;;;36.85;19.48;;;;;;;-3.99;99.20;101134.75;5055109;28;20168;-52
2022/12/12 05:15:16;;;;;;;34.15;18.33;;;;;;;-3.99;99.59;101133.00;5055465;28;20375;-55
2022/12/12 05:17:45;;;;;;;36.50;19.27;;;;;;;-4.02;99.74;101129.59;5055868;28;20109;-51
2022/12/12 05:20:10;;;;;;;;;;;;;;;-3.95;99.65;101137.28;5055921;28;20112;-52
2022/12/12 05:22:36;;;;;;;35.13;17.80;;;;;;;-4.02;99.41;101138.22;5055526;28;20410;-54
2022/12/12 05:25:02;;;;;;;28.88;17.85;;;;;;;-4.03;99.31;101143.41;5055474;28;20025;-53
2022/12/12 05:27:27;;;;;;;36.83;18.60;;;;;;;-4.07;98.90;101140.00;5055504;28;20102;-52
2022/12/12 05:29:52;;;;;;;33.38;19.20;;;;;;;-4.08;98.74;101140.88;5054658;28;20029;-54
2022/12/12 05:32:18;;;;;;;34.53;18.00;;;;;;;-4.10;99.15;101147.81;5055798;28;20479;-52
2022/12/12 05:34:43;;;;;;;32.95;18.38;;;;;;;-4.14;99.60;101136.63;5055541;28;20029;-55
2022/12/12 05:37:08;;;;;;;32.40;17.63;;;;;;;-4.17;99.12;101144.44;5054255;28;20021;-51
2022/12/12 05:39:34;;;;;;;30.15;17.52;;;;;;;-4.19;98.92;101141.00;5055296;28;20534;-54
2022/12/12 05:41:59;;;;;;;31.90;17.40;;;;;;;-4.20;99.31;101147.06;5055273;28;20045;-53
2022/12/12 05:44:24;;;;;;;32.00;17.98;;;;;;;-4.21;99.28;101152.25;5055295;28;20059;-51
2022/12/12 05:46:49;;;;;;;34.78;19.55;;;;;;;-4.27;99.23;101150.59;5054336;28;20085;-52
2022/12/12 05:49:15;;;;;;;36.28;19.70;;;;;;;-4.31;99.79;101151.53;5055214;28;20044;-53
2022/12/12 05:51:40;;;;;;;32.05;17.75;;;;;;;-4.33;99.86;101156.72;5054932;28;20483;-52
2022/12/12 05:54:06;;;;;;;32.33;18.77;;;;;;;-4.32;99.21;101158.44;5054201;28;20056;-54
2022/12/12 05:56:31;;;;;;;35.92;18.92;;;;;;;-4.33;99.35;101155.84;5054887;28;20029;-53
2022/12/12 05:58:56;;;;;;;33.72;18.75;;;;;;;-4.36;99.44;101158.50;5065611;28;20025;-53
2022/12/12 06:01:22;;;;;;;35.00;18.05;;;;;;;-4.39;98.94;101155.94;5055117;28;20034;-53
2022/12/12 06:03:47;;;;;;;34.25;18.02;;;;;;;-4.40;98.77;101159.38;5053482;28;20025;-54
2022/12/12 06:06:12;;;;;;;32.65;18.27;;;;;;;-4.42;98.90;101161.13;5055023;28;20029;-51
2022/12/12 06:08:37;;;;;;;31.52;17.77;;;;;;;-4.42;98.75;101158.53;5054466;28;20532;-53
2022/12/12 06:11:05;;;;;;;36.58;19.17;;;;;;;-4.43;99.07;101165.44;5054011;28;20061;-52
2022/12/12 06:13:30;;;;;;;31.42;17.42;;;;;;;-4.43;98.59;101165.44;5053900;28;20045;-54
2022/12/12 06:15:56;;;;;;;31.05;17.02;;;;;;;-4.44;98.82;101166.34;5054602;28;20033;-54
2022/12/12 06:18:21;;;;;;;33.72;17.58;;;;;;;-4.45;98.84;101159.41;5052942;28;20029;-51
2022/12/12 06:20:46;;;;;;;34.58;17.35;;;;;;;-4.47;99.12;101169.81;5054542;28;20025;-51
2022/12/12 06:23:12;;;;;;;31.05;18.30;;;;;;;-4.49;99.28;101168.13;5053522;28;20091;-52
2022/12/12 06:25:37;;;;;;;40.50;16.83;;;;;;;-4.50;99.10;101172.41;5054045;28;20399;-52
2022/12/12 06:28:02;;;;;;;34.38;19.13;;;;;;;-4.52;99.08;101173.31;5054355;28;20131;-55
2022/12/12 06:30:28;;;;;;;35.88;18.30;;;;;;;-4.54;98.37;101175.06;5054010;28;20029;-54
2022/12/12 06:32:53;;;;;;;31.30;16.95;;;;;;;-4.56;99.04;101171.63;5054073;28;20550;-55
2022/12/12 06:35:18;;;;;;;32.65;17.98;;;;;;;-4.58;98.35;101175.97;5053742;28;20079;-55
2022/12/12 06:37:44;;;;;;;30.65;17.13;;;;;;;-4.62;98.23;101169.09;5053600;28;20059;-53
2022/12/12 06:40:10;;;;;;;32.40;17.38;;;;;;;-4.65;98.86;101170.84;5054561;28;20068;-51
2022/12/12 06:42:35;;;;;;;32.67;18.50;;;;;;;-4.67;98.97;101166.53;5051277;28;20051;-55
2022/12/12 06:45:01;;;;;;;31.08;16.80;;;;;;;-4.68;98.41;101176.06;5051007;28;20064;-54
2022/12/12 06:47:26;;;;;;;30.58;16.92;;;;;;;-4.71;99.12;101177.81;5049930;28;20017;-53
2022/12/12 06:49:51;;;;;;;31.95;16.90;;;;;;;-4.73;98.84;101184.72;5052141;28;20021;-55
2022/12/12 06:52:16;;;;;;;36.58;18.08;;;;;;;-4.74;98.80;101178.69;5052652;28;20021;-51
2022/12/12 06:54:42;;;;;;;32.75;17.58;;;;;;;-4.77;99.24;101183.88;5053814;28;20028;-52
2022/12/12 06:57:07;;;;;;;32.53;17.02;;;;;;;-4.77;99.05;101183.03;5053170;28;20028;-51
2022/12/12 06:59:32;;;;;;;33.05;17.48;;;;;;;-4.81;98.69;101184.81;5053192;28;20029;-51
2022/12/12 07:01:58;;;;;;;32.10;17.55;;;;;;;-4.82;99.04;101185.66;5053579;28;20032;-61
2022/12/12 07:04:24;;;;;;;36.50;17.70;;;;;;;-4.84;99.74;101185.66;5043746;28;20072;-60
2022/12/12 07:06:50;;;;;;;33.15;17.20;;;;;;;-4.87;99.44;101195.19;5048110;28;20029;-60
2022/12/12 07:09:15;;;;;;;35.30;17.80;;;;;;;-4.86;99.50;101194.34;5053715;28;20418;-60
2022/12/12 07:11:41;;;;;;;33.72;17.45;;;;;;;-4.90;99.97;101195.22;5052036;28;20025;-61
2022/12/12 07:14:06;;;;;;;34.22;16.33;;;;;;;-4.92;99.77;101199.56;5053924;28;20490;-61
2022/12/12 07:16:32;;;;;;;33.85;16.17;;;;;;;-4.92;99.83;101196.97;5040554;28;20379;-60
2022/12/12 07:18:58;;;;;;;38.70;16.30;;;;;;;-4.92;99.74;101205.59;5051652;28;20479;-60
2022/12/12 07:21:23;;;;;;;35.55;17.88;;;;;;;-4.91;100.00;101202.13;5049510;28;20132;-58
2022/12/12 07:23:48;;;;;;;36.45;16.38;;;;;;;-4.90;99.41;101206.44;5050573;28;20037;-61
2022/12/12 07:26:17;;;;;;;32.10;17.38;;;;;;;-4.90;100.00;101205.56;5045603;28;20125;-61
2022/12/12 07:28:43;;;;;;;32.58;15.55;;;;;;;-4.89;100.00;101213.34;5050194;28;20494;-60
2022/12/12 07:31:14;;;;;;;30.92;16.58;;;;;;;-4.87;100.00;101210.75;5043716;28;20119;-61
2022/12/12 07:33:40;;;;;;;36.92;17.58;;;;;;;-4.84;100.00;101213.31;5045489;28;20483;-61
2022/12/12 07:36:06;;;;;;;32.05;16.67;;;;;;;-4.82;99.57;101213.31;5046782;28;20124;-61
2022/12/12 07:38:32;;;;;;;37.67;18.20;;;;;;;-4.78;99.93;101217.59;5045566;28;20098;-61
2022/12/12 07:41:12;;;;;;;32.95;17.00;;;;;;;-4.79;99.24;101221.06;5047918;28;20082;-60
2022/12/12 07:43:40;;;;;;;31.70;16.98;;;;;;;-4.79;99.20;101223.66;5044365;28;20115;-60
2022/12/12 07:46:07;;;;;;;33.28;16.55;;;;;;;-4.80;99.00;101230.53;5046987;28;20392;-61
2022/12/12 07:48:33;;;;;;;31.05;16.15;;;;;;;-4.79;99.13;101231.44;5044814;28;20021;-60
2022/12/12 07:50:59;;;;;;;33.67;16.77;;;;;;;-4.77;99.50;101233.13;5045964;28;20032;-62
2022/12/12 07:53:25;;;;;;;33.20;17.10;;;;;;;-4.76;99.32;101236.56;5047458;28;20053;-61
2022/12/12 07:55:50;;;;;;;32.13;16.88;;;;;;;-4.77;98.87;101235.72;5044514;28;20112;-61
2022/12/12 07:58:15;;;;;;;35.17;15.77;;;;;;;-4.78;98.87;101234.00;5045405;28;20036;-61
2022/12/12 08:00:41;;;;;;;35.55;16.75;;;;;;;-4.77;98.67;101237.44;5047649;28;20502;-61
2022/12/12 08:03:06;;;;;;;30.35;16.88;;;;;;;-4.79;98.92;101237.47;5046947;28;20037;-61
2022/12/12 08:05:32;;;;;;;33.88;16.45;;;;;;;-4.78;99.21;101246.09;5032900;28;20068;-60
2022/12/12 08:07:57;;;;;;;33.67;17.20;;;;;;;-4.77;98.59;101248.66;5044660;28;20499;-61
2022/12/12 08:10:23;;;;;;;33.58;16.52;;;;;;;-4.76;99.13;101253.00;5048229;28;20378;-61
2022/12/12 08:12:48;;;;;;;33.05;16.52;;;;;;;-4.76;98.86;101249.53;5049211;28;20124;-61
2022/12/12 08:15:15;;;;;;;35.13;16.27;;;;;;;-4.76;98.54;101258.19;5049857;28;20474;-61
2022/12/12 08:17:41;;;;;;;36.55;17.30;;;;;;;-4.76;98.46;101255.59;5043677;28;20026;-60
2022/12/12 08:20:07;;;;;;;36.22;17.38;;;;;;;-4.76;98.73;101253.00;5049038;28;20029;-61
2022/12/12 08:22:34;;;;;;;35.00;17.85;;;;;;;-4.76;99.23;101257.28;5048678;28;20131;-61
2022/12/12 08:24:59;;;;;;;34.28;17.08;;;;;;;-4.76;98.99;101253.00;5047690;28;20480;-61
2022/12/12 08:27:24;;;;;;;34.53;17.23;;;;;;;-4.76;98.73;101258.19;5049010;28;20045;-60
2022/12/12 08:29:51;;;;;;;32.80;17.73;;;;;;;-4.75;98.96;101261.63;5041965;28;20035;-60
2022/12/12 08:32:17;;;;;;;35.35;17.27;;;;;;;-4.74;98.76;101260.75;5036829;28;20419;-60
2022/12/12 08:34:42;;;;;;;34.13;17.90;;;;;;;-4.72;98.76;101264.19;5033249;28;20025;-59
2022/12/12 08:37:07;;;;;;;33.90;16.15;;;;;;;-4.71;99.04;101263.34;5047595;28;20053;-61
2022/12/12 08:39:33;;;;;;;30.75;16.75;;;;;;;-4.70;99.42;101262.44;5043631;28;20103;-61
2022/12/12 08:41:59;;;;;;;32.08;16.63;;;;;;;-4.68;99.35;101261.56;5046507;28;20561;-60
2022/12/12 08:44:24;;;;;;;36.63;17.65;;;;;;;-4.67;99.46;101268.47;5047293;28;20029;-60
2022/12/12 08:46:50;;;;;;;37.40;17.58;;;;;;;-4.62;99.21;101265.00;5042769;28;20151;-61
2022/12/12 08:49:15;;;;;;;34.50;16.85;;;;;;;-4.59;99.42;101264.97;5040805;28;20038;-60
2022/12/12 08:51:41;;;;;;;39.88;18.75;;;;;;;-4.56;99.57;101267.53;5041738;28;20040;-59
2022/12/12 08:54:07;;;;;;;37.08;17.00;;;;;;;-4.50;100.00;101275.25;5051446;28;20031;-59
2022/12/12 08:56:33;;;;;;;34.80;17.92;;;;;;;-4.46;100.00;101267.47;5052483;28;20024;-59
2022/12/12 08:58:58;;;;;;;35.85;16.98;;;;;;;-4.39;100.00;101272.59;5051731;28;20090;-59
2022/12/12 09:01:25;;;;;;;37.65;17.48;;;;;;;-4.35;100.00;101276.88;5050875;28;20025;-60
2022/12/12 09:03:52;;;;;;;35.25;16.50;;;;;;;-4.28;100.00;101279.41;5050923;28;20060;-60
2022/12/12 09:06:18;;;;;;;34.20;15.98;;;;;;;-4.21;100.00;101277.63;5050842;28;20032;-51
2022/12/12 09:08:43;;;;;;;38.97;17.85;;;;;;;-4.14;100.00;101276.69;5051971;28;20083;-52
2022/12/12 09:11:09;;;;;;;37.53;17.02;;;;;;;-4.04;100.00;101272.28;5051581;28;20021;-51
2022/12/12 09:13:35;;;;;;;41.97;17.95;;;;;;;-3.94;100.00;101276.50;5050233;28;20041;-52
2022/12/12 09:16:01;;;;;;;32.15;15.80;;;;;;;-3.84;100.00;101271.25;5036274;28;20055;-56
2022/12/12 09:18:27;;;;;;;36.25;16.60;;;;;;;-3.73;100.00;101280.66;5039268;28;20432;-52
2022/12/12 09:20:54;;;;;;;35.55;17.00;;;;;;;-3.62;100.00;101288.31;5031873;28;20032;-53
2022/12/12 09:23:21;;;;;;;33.47;16.48;;;;;;;-3.49;100.00;101277.78;5043471;28;20378;-53
2022/12/12 09:25:47;;;;;;;36.95;16.88;;;;;;;-3.39;100.00;101275.06;5042739;28;20449;-54
2022/12/12 09:28:14;;;;;;;36.17;17.30;;;;;;;-3.29;100.00;101272.38;5047309;28;20079;-54
2022/12/12 09:30:40;;;;;;;34.40;17.45;;;;;;;-3.21;100.00;101276.59;5047160;28;20276;-52
2022/12/12 09:33:06;;;;;;;34.45;16.25;;;;;;;-3.10;100.00;101276.44;5047015;28;20213;-52
2022/12/12 09:35:32;;;;;;;37.42;16.25;;;;;;;-3.01;99.89;101278.91;5047257;28;20025;-54
2022/12/12 09:37:57;;;;;;;30.15;16.17;;;;;;;-2.94;99.79;101271.91;5047241;28;20099;-53
2022/12/12 09:40:30;;;;;;;32.78;15.63;;;;;;;-2.86;99.66;101280.44;5047131;28;20075;-52
2022/12/12 09:42:56;;;;;;;32.20;15.93;;;;;;;-2.77;99.32;101281.19;5047305;28;20175;-51
2022/12/12 09:45:22;;;;;;;37.00;17.38;;;;;;;-2.69;99.38;101271.56;5046259;28;20112;-56
2022/12/12 09:47:52;;;;;;;40.50;18.02;;;;;;;-2.61;99.36;101270.53;5045654;28;20025;-56
2022/12/12 09:50:29;;;;;;;32.72;15.43;;;;;;;-2.48;98.79;101267.75;5045319;28;20117;-55
2022/12/12 09:52:58;;;;;;;34.60;17.13;;;;;;;-2.39;98.15;101269.38;5039615;28;20421;-56
2022/12/12 09:55:29;;;;;;;35.03;16.10;;;;;;;-2.28;98.10;101270.03;5050816;28;20025;-56
2022/12/12 09:58:05;;;;;;;34.67;16.52;;;;;;;-2.17;97.76;101268.09;5048196;28;20048;-53
2022/12/12 10:00:35;;;;;;;28.73;15.80;;;;;;;-2.07;96.98;101259.25;5045576;28;20025;-56
2022/12/12 10:03:18;;;;;;;34.28;15.85;;;;;;;-1.95;96.15;101263.41;5048110;28;20025;-55
2022/12/12 10:05:57;;;;;;;33.88;15.73;;;;;;;-1.87;96.20;101265.84;5049054;28;20305;-55
2022/12/12 10:08:25;;;;;;;;;;;;;;;-1.80;97.17;101264.00;5045132;28;20466;-52
2022/12/12 10:10:54;;;;;;;32.92;16.42;;;;;;;-1.71;96.38;101269.03;5048299;28;19995;-53
2022/12/12 10:13:25;;;;;;;29.27;14.52;;;;;;;-1.63;96.17;101267.16;5049117;28;20408;-57
2022/12/12 10:15:57;;;;;;;29.75;16.27;;;;;;;-1.56;95.47;101263.53;5044173;28;20036;-55
2022/12/12 10:18:31;;;;;;;30.90;14.93;;;;;;;-1.49;94.77;101259.06;5048093;28;20029;-55
2022/12/12 10:21:00;;;;;;;35.00;15.75;;;;;;;-1.43;95.23;101255.47;5043682;28;20032;-57
2022/12/12 10:23:57;;;;;;;32.45;16.23;;;;;;;-1.32;94.55;101262.19;5046777;28;20024;-57
2022/12/12 10:26:26;;;;;;;30.80;15.55;;;;;;;-1.20;95.02;101257.59;5045209;28;20049;-54
2022/12/12 10:28:56;;;;;;;28.83;15.30;;;;;;;-1.07;94.35;101259.06;5042194;28;20100;-55
2022/12/12 10:31:50;;;;;;;35.22;15.48;;;;;;;-0.91;95.61;101253.53;5046204;28;20029;-53
2022/12/12 10:34:43;;;;;;;34.17;15.85;;;;;;;-0.79;94.31;101251.47;5048317;28;20037;-56
2022/12/12 10:37:24;;;;;;;28.95;15.02;;;;;;;-0.73;92.89;101253.09;5045615;28;20032;-55
2022/12/12 10:40:21;;;;;;;27.85;14.45;;;;;;;-0.66;91.55;101246.00;5046467;28;20091;-57
2022/12/12 10:43:22;;;;;;;27.90;14.35;;;;;;;-0.57;92.39;101248.38;5044806;28;20179;-56
2022/12/12 10:46:09;;;;;;;26.98;13.93;;;;;;;-0.49;91.01;101242.97;5046015;28;20021;-57
2022/12/12 10:48:35;;;;;;;28.40;13.63;;;;;;;-0.42;90.96;101239.31;5046690;28;20056;-56
2022/12/12 10:51:06;;;;;;;26.90;14.07;;;;;;;-0.36;91.49;101241.78;5046290;28;20075;-55
2022/12/12 10:53:32;;;;;;;25.50;12.98;;;;;;;-0.31;89.85;101244.28;5047040;28;20087;-57
2022/12/12 10:56:04;;;;;;;26.67;14.27;;;;;;;-0.26;89.15;101248.47;5044954;28;20385;-57
2022/12/12 10:58:38;;;;;;;26.33;13.95;;;;;;;-0.25;88.85;101241.50;5047720;28;20028;-57
2022/12/12 11:01:12;;;;;;;29.00;14.52;;;;;;;-0.19;89.44;101247.41;5046088;28;20033;-56
2022/12/12 11:03:45;;;;;;;24.27;13.30;;;;;;;-0.14;88.80;101254.28;5047103;28;20044;-55
2022/12/12 11:06:16;;;;;;;26.92;14.32;;;;;;;-0.06;89.58;101247.13;5043832;28;20108;-57
2022/12/12 11:08:57;;;;;;;29.10;14.48;;;;;;;0.04;88.82;101237.31;5045683;28;20025;-57
2022/12/12 11:11:27;;;;;;;26.02;12.77;;;;;;;0.12;87.90;101243.19;5047679;28;20021;-57
2022/12/12 11:13:55;;;;;;;24.73;13.45;;;;;;;0.21;88.80;101234.22;5049141;28;20041;-57
2022/12/12 11:16:26;;;;;;;26.98;13.50;;;;;;;0.35;87.64;101227.72;5043719;28;20518;-56
2022/12/12 11:19:14;;;;;;;25.45;13.65;;;;;;;0.43;87.49;101234.47;5049062;28;20598;-57
2022/12/12 11:21:40;;;;;;;25.80;13.67;;;;;;;0.47;86.77;101226.53;5047007;28;20033;-56
2022/12/12 11:24:11;;;;;;;26.27;13.45;;;;;;;0.51;85.07;101227.28;5047836;28;20053;-56
2022/12/12 11:26:54;;;;;;;24.88;12.88;;;;;;;0.59;85.47;101227.06;5050100;28;20045;-56
2022/12/12 11:29:38;;;;;;;24.40;13.63;;;;;;;0.67;85.13;101233.78;5042426;28;20037;-57
2022/12/12 11:32:14;;;;;;;25.52;12.32;;;;;;;0.67;84.37;101228.56;5025603;28;20368;-56
2022/12/12 11:34:44;;;;;;;26.33;13.07;;;;;;;0.67;83.23;101223.34;5052174;28;20080;-56